createdAt,value
2018-07-02T00:00:28.906Z,101104.74
2018-07-02T00:02:58.451Z,101100.38
2018-07-02T00:06:47.320Z,101094.91
2018-07-02T00:09:16.612Z,101104.52
2018-07-02T00:11:45.951Z,101096.31
2018-07-02T00:14:16.327Z,101088.10
2018-07-02T00:16:45.590Z,101090.73
2018-07-02T00:19:14.837Z,101088.65
2018-07-02T00:21:44.177Z,101090.64
2018-07-02T00:24:13.559Z,101098.80
2018-07-02T00:26:42.841Z,101094.07
2018-07-02T00:29:12.139Z,101100.03
2018-07-02T00:31:41.414Z,101100.01
2018-07-02T00:34:10.681Z,101101.73
2018-07-02T00:36:39.973Z,101092.89
2018-07-02T00:39:11.972Z,101089.23
2018-07-02T00:41:41.942Z,101097.98
2018-07-02T00:44:11.534Z,101099.27
2018-07-02T00:46:40.819Z,101102.98
2018-07-02T00:49:10.130Z,101098.23
2018-07-02T00:51:39.400Z,101092.17
2018-07-02T00:54:08.702Z,101090.72
2018-07-02T00:56:38.013Z,101081.92
2018-07-02T00:59:07.372Z,101090.89
2018-07-02T01:01:36.780Z,101088.53
2018-07-02T01:04:06.109Z,101091.27
2018-07-02T01:06:35.411Z,101091.83
2018-07-02T01:09:07.563Z,101093.72
2018-07-02T01:11:37.091Z,101088.29
2018-07-02T01:14:06.877Z,101093.31
2018-07-02T01:16:36.139Z,101086.72
2018-07-02T01:19:08.402Z,101089.47
2018-07-02T01:21:37.746Z,101086.72
2018-07-02T01:24:07.035Z,101086.73
2018-07-02T01:26:36.166Z,101089.41
2018-07-02T01:29:05.481Z,101089.16
2018-07-02T01:31:34.742Z,101087.13
2018-07-02T01:34:04.216Z,101083.77
2018-07-02T01:36:33.532Z,101088.99
2018-07-02T01:39:02.824Z,101087.53
2018-07-02T01:41:32.110Z,101090.41
2018-07-02T01:44:01.439Z,101090.87
2018-07-02T01:46:30.767Z,101100.64
2018-07-02T01:49:00.092Z,101099.35
2018-07-02T01:51:29.381Z,101105.87
2018-07-02T01:53:58.702Z,101101.54
2018-07-02T01:56:27.792Z,101101.67
2018-07-02T01:58:57.188Z,101103.72
2018-07-02T02:01:26.546Z,101113.17
2018-07-02T02:03:55.921Z,101108.77
2018-07-02T02:06:25.297Z,101114.44
2018-07-02T02:08:54.765Z,101112.31
2018-07-02T02:11:24.103Z,101108.77
2018-07-02T02:13:53.834Z,101111.45
2018-07-02T02:16:23.485Z,101111.17
2018-07-02T02:18:52.788Z,101113.64
2018-07-02T02:21:22.072Z,101114.11
2018-07-02T02:23:51.391Z,101110.71
2018-07-02T02:26:20.650Z,101109.31
2018-07-02T02:28:50.058Z,101109.77
2018-07-02T02:31:19.333Z,101117.98
2018-07-02T02:33:48.685Z,101118.05
2018-07-02T02:36:18.099Z,101112.33
2018-07-02T02:38:47.371Z,101112.47
2018-07-02T02:41:16.692Z,101110.27
2018-07-02T02:43:46.149Z,101107.22
2018-07-02T02:46:15.469Z,101107.53
2018-07-02T02:48:44.944Z,101112.16
2018-07-02T02:51:14.359Z,101110.11
2018-07-02T02:53:43.700Z,101111.48
2018-07-02T02:56:13.131Z,101116.72
2018-07-02T02:58:42.451Z,101115.91
2018-07-02T03:01:11.769Z,101111.81
2018-07-02T03:03:41.270Z,101104.17
2018-07-02T03:06:10.611Z,101107.31
2018-07-02T03:08:39.872Z,101107.90
2018-07-02T03:11:09.224Z,101102.94
2018-07-02T03:13:38.539Z,101108.45
2018-07-02T03:16:07.915Z,101102.06
2018-07-02T03:18:37.188Z,101113.58
2018-07-02T03:21:06.658Z,101110.17
2018-07-02T03:23:35.929Z,101108.64
2018-07-02T03:26:05.333Z,101106.88
2018-07-02T03:28:34.682Z,101108.73
2018-07-02T03:31:04.312Z,101112.78
2018-07-02T03:33:33.772Z,101106.34
2018-07-02T03:36:03.236Z,101108.97
2018-07-02T03:38:32.687Z,101112.05
2018-07-02T03:41:01.997Z,101121.82
2018-07-02T03:43:31.295Z,101121.87
2018-07-02T03:46:00.687Z,101127.97
2018-07-02T03:48:30.010Z,101126.66
2018-07-02T03:50:59.385Z,101127.73
2018-07-02T03:53:28.652Z,101129.23
2018-07-02T03:55:57.928Z,101134.20
2018-07-02T03:58:27.342Z,101132.45
2018-07-02T04:00:56.750Z,101134.95
2018-07-02T04:03:26.054Z,101134.79
2018-07-02T04:05:55.325Z,101140.00
2018-07-02T04:08:24.931Z,101143.61
2018-07-02T04:10:54.317Z,101140.12
2018-07-02T04:13:23.639Z,101142.15
2018-07-02T04:15:53.056Z,101144.53
2018-07-02T04:18:22.383Z,101137.09
2018-07-02T04:20:51.785Z,101142.80
2018-07-02T04:23:21.091Z,101137.77
2018-07-02T04:25:50.396Z,101131.77
2018-07-02T04:28:19.730Z,101132.53
2018-07-02T04:30:49.098Z,101137.30
2018-07-02T04:33:18.409Z,101136.09
2018-07-02T04:35:47.850Z,101149.52
2018-07-02T04:38:17.142Z,101152.09
2018-07-02T04:40:46.499Z,101147.51
2018-07-02T04:43:15.798Z,101151.39
2018-07-02T04:45:45.114Z,101148.00
2018-07-02T04:48:14.556Z,101146.92
2018-07-02T04:50:44.040Z,101145.43
2018-07-02T04:53:13.473Z,101152.86
2018-07-02T04:55:42.901Z,101154.19
2018-07-02T04:58:12.294Z,101148.78
2018-07-02T05:00:41.589Z,101147.14
2018-07-02T05:03:10.842Z,101141.42
2018-07-02T05:05:40.142Z,101143.03
2018-07-02T05:08:09.471Z,101142.09
2018-07-02T05:10:38.762Z,101134.34
2018-07-02T05:13:08.041Z,101131.42
2018-07-02T05:15:37.532Z,101130.56
2018-07-02T05:18:06.682Z,101133.06
2018-07-02T05:20:36.013Z,101132.57
2018-07-02T05:23:05.437Z,101134.16
2018-07-02T05:25:34.771Z,101128.08
2018-07-02T05:28:04.046Z,101128.56
2018-07-02T05:30:33.373Z,101129.98
2018-07-02T05:33:02.787Z,101132.82
2018-07-02T05:35:32.189Z,101126.50
2018-07-02T05:38:01.534Z,101123.64
2018-07-02T05:40:30.917Z,101126.41
2018-07-02T05:43:00.263Z,101115.17
2018-07-02T05:45:29.801Z,101117.64
2018-07-02T05:47:59.428Z,101117.06
2018-07-02T05:50:28.910Z,101120.34
2018-07-02T05:52:58.308Z,101115.05
2018-07-02T05:55:27.690Z,101113.11
2018-07-02T05:57:57.207Z,101116.16
2018-07-02T06:00:26.902Z,101117.69
2018-07-02T06:02:56.218Z,101109.61
2018-07-02T06:05:25.706Z,101105.83
2018-07-02T06:07:55.508Z,101117.79
2018-07-02T06:10:25.114Z,101117.28
2018-07-02T06:12:54.856Z,101120.31
2018-07-02T06:15:24.163Z,101117.84
2018-07-02T06:17:53.527Z,101121.37
2018-07-02T06:20:22.947Z,101125.70
2018-07-02T06:22:52.346Z,101120.61
2018-07-02T06:25:21.616Z,101120.13
2018-07-02T06:27:51.090Z,101120.28
2018-07-02T06:30:20.389Z,101125.01
2018-07-02T06:32:49.818Z,101124.27
2018-07-02T06:35:19.118Z,101122.75
2018-07-02T06:37:48.530Z,101124.40
2018-07-02T06:40:17.858Z,101118.37
2018-07-02T06:42:47.163Z,101127.75
2018-07-02T06:45:16.571Z,101126.15
2018-07-02T06:47:45.987Z,101125.05
2018-07-02T06:50:15.280Z,101121.90
2018-07-02T06:52:44.606Z,101126.67
2018-07-02T06:55:13.913Z,101130.30
2018-07-02T06:57:43.292Z,101132.31
2018-07-02T07:00:12.739Z,101125.35
2018-07-02T07:02:42.146Z,101124.32
2018-07-02T07:05:11.563Z,101129.45
2018-07-02T07:07:41.011Z,101125.95
2018-07-02T07:10:10.418Z,101127.05
2018-07-02T07:12:39.731Z,101127.41
2018-07-02T07:15:09.024Z,101119.09
2018-07-02T07:17:38.318Z,101123.30
2018-07-02T07:20:07.789Z,101131.05
2018-07-02T07:22:37.129Z,101131.74
2018-07-02T07:25:06.410Z,101130.36
2018-07-02T07:27:35.813Z,101135.66
2018-07-02T07:30:05.868Z,101130.94
2018-07-02T07:32:35.245Z,101132.83
2018-07-02T07:35:04.541Z,101131.15
2018-07-02T07:37:33.837Z,101131.47
2018-07-02T07:40:03.173Z,101133.67
2018-07-02T07:42:32.657Z,101137.52
2018-07-02T07:45:01.970Z,101131.50
2018-07-02T07:47:31.351Z,101124.55
2018-07-02T07:50:00.643Z,101133.83
2018-07-02T07:52:30.011Z,101127.23
2018-07-02T07:54:59.399Z,101128.48
2018-07-02T07:57:28.814Z,101127.27
2018-07-02T07:59:58.178Z,101120.00
2018-07-02T08:02:28.641Z,101112.70
2018-07-02T08:04:58.062Z,101125.87
2018-07-02T08:07:28.532Z,101125.47
2018-07-02T08:09:57.918Z,101123.53
2018-07-02T08:12:27.503Z,101126.41
2018-07-02T08:14:56.801Z,101119.27
2018-07-02T08:17:26.365Z,101121.53
2018-07-02T08:19:55.740Z,101124.37
2018-07-02T08:22:25.218Z,101121.89
2018-07-02T08:24:54.765Z,101111.24
2018-07-02T08:27:24.216Z,101110.27
2018-07-02T08:29:53.511Z,101111.70
2018-07-02T08:32:22.947Z,101104.66
2018-07-02T08:34:52.289Z,101105.28
2018-07-02T08:37:21.594Z,101106.70
2018-07-02T08:39:50.849Z,101116.63
2018-07-02T08:42:20.181Z,101102.73
2018-07-02T08:44:49.603Z,101102.66
2018-07-02T08:47:18.937Z,101103.69
2018-07-02T08:49:48.213Z,101086.52
2018-07-02T08:52:17.716Z,101101.80
2018-07-02T08:54:47.022Z,101087.69
2018-07-02T08:57:16.427Z,101095.22
2018-07-02T08:59:45.743Z,101097.19
2018-07-02T09:02:15.122Z,101098.84
2018-07-02T09:04:44.705Z,101109.94
2018-07-02T09:07:14.033Z,101104.27
2018-07-02T09:09:43.319Z,101102.15
2018-07-02T09:12:12.688Z,101100.48
2018-07-02T09:14:42.091Z,101104.78
2018-07-02T09:17:11.316Z,101100.23
2018-07-02T09:19:40.601Z,101106.30
2018-07-02T09:22:10.024Z,101104.40
2018-07-02T09:24:39.406Z,101102.05
2018-07-02T09:27:08.650Z,101102.76
2018-07-02T09:29:38.019Z,101101.09
2018-07-02T09:32:07.281Z,101104.94
2018-07-02T09:34:36.617Z,101099.80
2018-07-02T09:37:06.433Z,101097.61
2018-07-02T09:39:35.682Z,101106.00
2018-07-02T09:42:04.965Z,101104.05
2018-07-02T09:44:34.255Z,101109.36
2018-07-02T09:47:03.526Z,101100.09
2018-07-02T09:49:32.823Z,101101.34
2018-07-02T09:52:02.027Z,101101.70
2018-07-02T09:54:32.268Z,101112.21
2018-07-02T09:57:01.626Z,101107.41
2018-07-02T09:59:31.015Z,101104.37
2018-07-02T10:02:00.265Z,101103.75
2018-07-02T10:04:29.543Z,101102.27
2018-07-02T10:06:58.971Z,101099.55
2018-07-02T10:09:28.425Z,101110.78
2018-07-02T10:11:57.748Z,101097.73
2018-07-02T10:14:27.215Z,101101.67
2018-07-02T10:16:56.635Z,101115.81
2018-07-02T10:19:26.314Z,101103.50
2018-07-02T10:21:55.973Z,101102.56
2018-07-02T10:24:25.541Z,101097.95
2018-07-02T10:26:55.164Z,101089.87
2018-07-02T10:29:24.954Z,101089.55
2018-07-02T10:31:54.449Z,101090.05
2018-07-02T10:34:23.969Z,101088.18
2018-07-02T10:36:53.455Z,101097.41
2018-07-02T10:39:22.949Z,101088.86
2018-07-02T10:41:52.248Z,101087.29
2018-07-02T10:44:21.731Z,101084.49
2018-07-02T10:46:51.039Z,101084.83
2018-07-02T10:49:20.459Z,101082.53
2018-07-02T10:51:49.760Z,101087.13
2018-07-02T10:54:19.149Z,101098.64
2018-07-02T10:56:48.473Z,101094.55
2018-07-02T10:59:17.777Z,101082.55
2018-07-02T11:01:47.055Z,101080.57
2018-07-02T11:04:16.445Z,101085.69
2018-07-02T11:06:45.843Z,101086.62
2018-07-02T11:09:15.249Z,101083.37
2018-07-02T11:11:44.942Z,101075.79
2018-07-02T11:14:14.289Z,101080.41
2018-07-02T11:16:44.235Z,101073.22
2018-07-02T11:19:13.699Z,101081.06
2018-07-02T11:21:42.990Z,101070.05
2018-07-02T11:24:12.794Z,101063.59
2018-07-02T11:26:42.326Z,101061.45
2018-07-02T11:29:11.915Z,101055.94
2018-07-02T11:31:41.430Z,101057.17
2018-07-02T11:34:10.788Z,101054.34
2018-07-02T11:36:40.064Z,101057.48
2018-07-02T11:39:11.550Z,101054.78
2018-07-02T11:41:40.950Z,101050.02
2018-07-02T11:44:10.501Z,101054.37
2018-07-02T11:46:39.857Z,101056.39
2018-07-02T11:49:09.248Z,101054.91
2018-07-02T11:51:38.613Z,101057.77
2018-07-02T11:54:07.952Z,101056.17
2018-07-02T11:56:37.281Z,101062.09
2018-07-02T11:59:06.766Z,101054.75
2018-07-02T12:01:36.105Z,101056.52
2018-07-02T12:04:05.480Z,101051.50
2018-07-02T12:06:34.859Z,101057.06
2018-07-02T12:09:06.120Z,101052.34
2018-07-02T12:11:35.532Z,101044.46
2018-07-02T12:14:05.132Z,101044.46
2018-07-02T12:16:34.707Z,101047.95
2018-07-02T12:19:04.012Z,101051.37
2018-07-02T12:21:33.575Z,101057.69
2018-07-02T12:24:03.122Z,101051.24
2018-07-02T12:26:32.786Z,101049.03
2018-07-02T12:29:02.221Z,101049.89
2018-07-02T12:31:31.610Z,101045.38
2018-07-02T12:34:00.927Z,101043.37
2018-07-02T12:36:30.345Z,101050.64
2018-07-02T12:38:59.758Z,101040.60
2018-07-02T12:41:29.152Z,101047.84
2018-07-02T12:43:58.525Z,101041.19
2018-07-02T12:46:27.929Z,101029.87
2018-07-02T12:48:57.706Z,101042.20
2018-07-02T12:51:27.414Z,101038.61
2018-07-02T12:53:56.805Z,101028.06
2018-07-02T12:56:26.173Z,101030.50
2018-07-02T12:58:55.782Z,101020.77
2018-07-02T13:01:25.322Z,101029.13
2018-07-02T13:03:54.636Z,101037.39
2018-07-02T13:06:24.098Z,101035.70
2018-07-02T13:08:53.612Z,101030.95
2018-07-02T13:11:22.865Z,101026.58
2018-07-02T13:13:52.147Z,101023.80
2018-07-02T13:16:21.387Z,101020.80
2018-07-02T13:18:50.650Z,101024.59
2018-07-02T13:21:19.974Z,101025.73
2018-07-02T13:23:49.212Z,101019.61
2018-07-02T13:26:18.577Z,101022.13
2018-07-02T13:28:47.939Z,101020.77
2018-07-02T13:31:17.378Z,101013.30
2018-07-02T13:33:46.677Z,101010.92
2018-07-02T13:36:16.146Z,101011.42
2018-07-02T13:38:45.380Z,101020.34
2018-07-02T13:41:14.706Z,101015.27
2018-07-02T13:43:44.002Z,101026.92
2018-07-02T13:46:13.389Z,101018.72
2018-07-02T13:48:42.840Z,101021.45
2018-07-02T13:51:12.228Z,101014.38
2018-07-02T13:53:41.446Z,101018.34
2018-07-02T13:56:10.758Z,101013.67
2018-07-02T13:58:40.187Z,101024.79
2018-07-02T14:01:09.501Z,101009.03
2018-07-02T14:03:38.735Z,101019.38
2018-07-02T14:06:08.056Z,101025.94
2018-07-02T14:08:37.367Z,101010.86
2018-07-02T14:11:06.651Z,101007.48
2018-07-02T14:13:37.019Z,101014.88
2018-07-02T14:16:06.416Z,101002.09
2018-07-02T14:18:35.783Z,100998.88
2018-07-02T14:21:05.200Z,100998.69
2018-07-02T14:23:34.476Z,100996.08
2018-07-02T14:26:03.825Z,100995.41
2018-07-02T14:28:33.083Z,100992.71
2018-07-02T14:31:02.434Z,100991.16
2018-07-02T14:33:31.705Z,100985.13
2018-07-02T14:36:01.042Z,100975.94
2018-07-02T14:38:30.383Z,100974.55
2018-07-02T14:40:59.744Z,100974.91
2018-07-02T14:43:29.101Z,100973.57
2018-07-02T14:45:58.599Z,100974.89
2018-07-02T14:48:27.963Z,100973.78
2018-07-02T14:50:57.558Z,100971.55
2018-07-02T14:53:26.972Z,100978.92
2018-07-02T14:55:56.366Z,100971.89
2018-07-02T14:58:25.788Z,100973.95
2018-07-02T15:00:55.573Z,100967.38
2018-07-02T15:03:25.181Z,100979.14
2018-07-02T15:05:54.674Z,100960.88
2018-07-02T15:08:24.091Z,100971.45
2018-07-02T15:10:53.611Z,100972.25
2018-07-02T15:13:22.918Z,100978.44
2018-07-02T15:15:52.207Z,100971.92
2018-07-02T15:18:21.598Z,100971.05
2018-07-02T15:20:50.812Z,100969.34
2018-07-02T15:23:20.211Z,100971.56
2018-07-02T15:25:49.506Z,100962.46
2018-07-02T15:28:18.907Z,100971.98
2018-07-02T15:30:51.590Z,100965.82
2018-07-02T15:33:20.968Z,100974.73
2018-07-02T15:35:50.354Z,100977.29
2018-07-02T15:38:19.655Z,100976.65
2018-07-02T15:40:48.912Z,100988.16
2018-07-02T15:43:18.340Z,100984.73
2018-07-02T15:45:47.618Z,100981.49
2018-07-02T15:48:17.107Z,100981.65
2018-07-02T15:50:46.484Z,100977.66
2018-07-02T15:53:16.806Z,100980.23
2018-07-02T15:55:46.176Z,100978.63
2018-07-02T15:58:15.669Z,100980.58
2018-07-02T16:00:46.160Z,100980.64
2018-07-02T16:03:16.593Z,100975.73
2018-07-02T16:05:46.004Z,100980.31
2018-07-02T16:08:15.484Z,100979.37
2018-07-02T16:10:44.866Z,100971.55
2018-07-02T16:13:14.274Z,100976.50
2018-07-02T16:15:43.819Z,100979.67
2018-07-02T16:18:13.238Z,100982.75
2018-07-02T16:20:42.607Z,100988.75
2018-07-02T16:23:11.891Z,100982.08
2018-07-02T16:25:41.028Z,100976.05
2018-07-02T16:28:10.528Z,100976.66
2018-07-02T16:30:39.913Z,100985.61
2018-07-02T16:33:09.460Z,100972.27
2018-07-02T16:35:39.041Z,100971.50
2018-07-02T16:38:08.297Z,100973.91
2018-07-02T16:40:37.777Z,100972.22
2018-07-02T16:43:08.178Z,100969.44
2018-07-02T16:45:37.590Z,100972.11
2018-07-02T16:48:07.532Z,100970.90
2018-07-02T16:50:36.758Z,100969.79
2018-07-02T16:53:06.271Z,100965.10
2018-07-02T16:55:35.681Z,100969.05
2018-07-02T16:58:04.992Z,100964.57
2018-07-02T17:00:34.316Z,100974.52
2018-07-02T17:03:03.686Z,100966.88
2018-07-02T17:05:33.116Z,100968.27
2018-07-02T17:08:02.434Z,100966.94
2018-07-02T17:10:31.781Z,100983.53
2018-07-02T17:13:01.065Z,100975.38
2018-07-02T17:15:30.358Z,100976.44
2018-07-02T17:17:59.750Z,100976.92
2018-07-02T17:20:29.146Z,100968.36
2018-07-02T17:22:58.555Z,100969.33
2018-07-02T17:25:27.855Z,100972.30
2018-07-02T17:27:57.242Z,100976.73
2018-07-02T17:30:26.640Z,100974.70
2018-07-02T17:32:56.123Z,100976.03
2018-07-02T17:35:25.779Z,100976.66
2018-07-02T17:37:55.563Z,100974.09
2018-07-02T17:40:24.917Z,100977.02
2018-07-02T17:42:54.304Z,100988.73
2018-07-02T17:45:23.600Z,100984.66
2018-07-02T17:47:52.879Z,100989.66
2018-07-02T17:50:22.181Z,100990.41
2018-07-02T17:52:51.556Z,100987.54
2018-07-02T17:55:20.609Z,100987.73
2018-07-02T17:57:49.985Z,100994.55
2018-07-02T18:00:19.264Z,100991.66
2018-07-02T18:02:48.920Z,100999.37
2018-07-02T18:05:18.410Z,100990.71
2018-07-02T18:07:48.264Z,100989.56
2018-07-02T18:10:17.537Z,100996.19
2018-07-02T18:12:46.877Z,100995.48
2018-07-02T18:15:16.415Z,100989.81
2018-07-02T18:17:45.789Z,100993.86
2018-07-02T18:20:15.146Z,100990.30
2018-07-02T18:22:44.505Z,100990.41
2018-07-02T18:25:13.847Z,100986.66
2018-07-02T18:27:43.400Z,100992.48
2018-07-02T18:30:12.815Z,100986.70
2018-07-02T18:32:42.334Z,100983.80
2018-07-02T18:35:11.650Z,100990.05
2018-07-02T18:37:41.086Z,100983.44
2018-07-02T18:40:10.364Z,100987.78
2018-07-02T18:42:39.417Z,100992.09
2018-07-02T18:45:08.801Z,100991.29
2018-07-02T18:47:38.006Z,101008.29
2018-07-02T18:50:07.429Z,101004.31
2018-07-02T18:52:36.825Z,101007.38
2018-07-02T18:55:06.409Z,101003.05
2018-07-02T18:57:35.885Z,101005.47
2018-07-02T19:00:06.061Z,101009.87
2018-07-02T19:02:35.466Z,101008.98
2018-07-02T19:05:06.207Z,101010.47
2018-07-02T19:07:35.641Z,101013.52
2018-07-02T19:10:05.881Z,101018.98
2018-07-02T19:12:35.368Z,101022.08
2018-07-02T19:15:04.786Z,101025.22
2018-07-02T19:17:34.150Z,101025.37
2018-07-02T19:20:03.605Z,101019.27
2018-07-02T19:22:32.925Z,101023.27
2018-07-02T19:25:05.695Z,101028.00
2018-07-02T19:27:35.035Z,101032.83
2018-07-02T19:30:04.481Z,101036.74
2018-07-02T19:32:33.751Z,101040.30
2018-07-02T19:35:03.082Z,101049.55
2018-07-02T19:37:32.640Z,101046.14
2018-07-02T19:40:02.010Z,101050.69
2018-07-02T19:42:31.431Z,101057.73
2018-07-02T19:45:01.234Z,101053.66
2018-07-02T19:47:31.088Z,101060.64
2018-07-02T19:50:00.498Z,101067.37
2018-07-02T19:52:30.116Z,101063.86
2018-07-02T19:54:59.472Z,101074.87
2018-07-02T19:57:28.961Z,101078.98
2018-07-02T19:59:58.501Z,101079.16
2018-07-02T20:02:27.998Z,101088.55
2018-07-02T20:04:57.229Z,101090.59
2018-07-02T20:07:26.704Z,101093.75
2018-07-02T20:09:56.058Z,101090.95
2018-07-02T20:12:25.514Z,101094.23
2018-07-02T20:14:55.659Z,101102.19
2018-07-02T20:17:25.369Z,101108.25
2018-07-02T20:19:54.855Z,101113.92
2018-07-02T20:22:24.223Z,101107.84
2018-07-02T20:24:53.778Z,101111.39
2018-07-02T20:27:23.543Z,101110.95
2018-07-02T20:29:52.949Z,101114.77
2018-07-02T20:32:22.297Z,101115.20
2018-07-02T20:34:51.724Z,101118.87
2018-07-02T20:37:21.026Z,101125.93
2018-07-02T20:39:50.415Z,101123.50
2018-07-02T20:42:19.804Z,101122.12
2018-07-02T20:44:49.182Z,101124.04
2018-07-02T20:47:18.600Z,101127.50
2018-07-02T20:49:47.948Z,101125.58
2018-07-02T20:52:17.239Z,101125.37
2018-07-02T20:54:46.642Z,101124.09
2018-07-02T20:57:16.015Z,101125.17
2018-07-02T20:59:45.481Z,101126.62
2018-07-02T21:02:14.884Z,101137.67
2018-07-02T21:04:44.216Z,101130.40
2018-07-02T21:07:13.594Z,101131.19
2018-07-02T21:09:43.009Z,101140.00
2018-07-02T21:12:12.382Z,101141.45
2018-07-02T21:14:41.685Z,101138.46
2018-07-02T21:17:10.837Z,101141.75
2018-07-02T21:19:40.252Z,101140.46
2018-07-02T21:22:09.930Z,101140.62
2018-07-02T21:24:39.284Z,101142.43
2018-07-02T21:27:08.638Z,101148.31
2018-07-02T21:29:38.091Z,101154.70
2018-07-02T21:32:07.517Z,101147.58
2018-07-02T21:34:37.014Z,101145.91
2018-07-02T21:37:06.858Z,101146.73
2018-07-02T21:39:36.186Z,101143.41
2018-07-02T21:42:05.682Z,101154.05
2018-07-02T21:44:35.086Z,101152.06
2018-07-02T21:47:10.065Z,101156.19
2018-07-02T21:49:40.164Z,101152.99
2018-07-02T21:52:09.915Z,101158.02
2018-07-02T21:54:39.326Z,101156.84
2018-07-02T21:57:08.747Z,101155.87
2018-07-02T21:59:38.237Z,101152.73
2018-07-02T22:02:07.648Z,101147.77
2018-07-02T22:04:37.268Z,101160.48
2018-07-02T22:07:06.959Z,101162.35
2018-07-02T22:09:36.241Z,101164.08
2018-07-02T22:12:05.580Z,101164.64
2018-07-02T22:14:34.897Z,101164.88
2018-07-02T22:17:04.167Z,101157.34
2018-07-02T22:19:33.533Z,101160.28
2018-07-02T22:22:02.965Z,101158.97
2018-07-02T22:24:32.213Z,101163.13
2018-07-02T22:27:01.620Z,101165.17
2018-07-02T22:29:30.945Z,101165.09
2018-07-02T22:32:00.347Z,101169.53
2018-07-02T22:34:31.051Z,101172.17
2018-07-02T22:37:00.407Z,101173.21
2018-07-02T22:39:29.793Z,101172.92
2018-07-02T22:41:59.098Z,101179.45
2018-07-02T22:44:28.417Z,101167.56
2018-07-02T22:46:57.506Z,101176.53
2018-07-02T22:49:26.939Z,101176.13
2018-07-02T22:51:56.475Z,101178.20
2018-07-02T22:54:25.851Z,101184.27
2018-07-02T22:56:55.222Z,101172.92
2018-07-02T22:59:24.612Z,101178.98
2018-07-02T23:01:54.166Z,101166.89
2018-07-02T23:04:23.525Z,101171.99
2018-07-02T23:06:52.802Z,101173.78
2018-07-02T23:09:22.278Z,101167.09
2018-07-02T23:11:51.869Z,101174.16
2018-07-02T23:14:21.125Z,101176.34
2018-07-02T23:16:50.359Z,101169.73
2018-07-02T23:19:19.651Z,101178.03
2018-07-02T23:21:49.048Z,101183.78
2018-07-02T23:24:18.282Z,101183.71
2018-07-02T23:26:47.658Z,101176.70
2018-07-02T23:29:16.939Z,101172.73
2018-07-02T23:31:46.315Z,101173.69
2018-07-02T23:34:15.755Z,101173.13
2018-07-02T23:36:45.053Z,101172.09
2018-07-02T23:39:14.758Z,101174.89
2018-07-02T23:41:44.807Z,101177.83
2018-07-02T23:44:14.054Z,101171.31
2018-07-02T23:46:43.308Z,101174.03
2018-07-02T23:49:12.343Z,101176.04
2018-07-02T23:51:41.771Z,101178.30
2018-07-02T23:54:11.061Z,101174.16
2018-07-02T23:56:40.313Z,101177.36
2018-07-02T23:59:09.585Z,101173.86
